This is the latest recevied weather packets stored in our database for station/object OK2ZAW-19. If no packets are shown the sender has not sent any weather packets the latest 10 day(s).
| Time | Temp. | Humidity | Pressure | Rain* | Wind** | Luminosity | Snow |
|---|---|---|---|---|---|---|---|
| 1777501357 | -2.78° C | 57% | 1028.3 hPa | - | - | 338 W/m² | - |
| 1777501047 | -2.78° C | 56% | 1028.2 hPa | - | - | 337 W/m² | - |
| 1777500738 | -2.78° C | 56% | 1028.2 hPa | - | - | 337 W/m² | - |
| 1777500428 | -2.78° C | 56% | 1028.2 hPa | - | - | 337 W/m² | - |
| 1777500119 | -2.22° C | 57% | 1028.2 hPa | - | - | 337 W/m² | - |
| 1777499809 | -2.22° C | 56% | 1028.1 hPa | - | - | 337 W/m² | - |
| 1777499500 | -2.22° C | 56% | 1028.1 hPa | - | - | 337 W/m² | - |
| 1777498881 | -2.22° C | 56% | 1027.9 hPa | - | - | 337 W/m² | - |
| 1777497643 | -2.22° C | 56% | 1028 hPa | - | - | 337 W/m² | - |
| 1777495476 | -1.67° C | 53% | 1027.5 hPa | - | - | 337 W/m² | - |
| 1777494547 | -1.11° C | 53% | 1027.3 hPa | - | - | 337 W/m² | - |
| 1777494237 | -1.11° C | 53% | 1027.3 hPa | - | - | 337 W/m² | - |
| 1777493928 | -1.11° C | 51% | 1027.3 hPa | - | - | 338 W/m² | - |
| 1777492999 | -1.11° C | 50% | 1027.2 hPa | - | - | 335 W/m² | - |
| 1777492689 | -1.11° C | 50% | 1027.1 hPa | - | - | 337 W/m² | - |
| 1777492380 | -1.11° C | 49% | 1027.1 hPa | - | - | 338 W/m² | - |
| 1777491761 | -1.11° C | 50% | 1027.1 hPa | - | - | 338 W/m² | - |
| 1777491451 | -1.11° C | 48% | 1027 hPa | - | - | 337 W/m² | - |
| 1777491141 | -0.56° C | 48% | 1027 hPa | - | - | 338 W/m² | - |
| 1777490832 | -0.56° C | 46% | 1026.9 hPa | - | - | 337 W/m² | - |
| 1777490522 | -0.56° C | 46% | 1026.9 hPa | - | - | 337 W/m² | - |
| 1777490213 | -0.56° C | 45% | 1026.9 hPa | - | - | 337 W/m² | - |
| 1777489903 | 0° C | 44% | 1026.8 hPa | - | - | 337 W/m² | - |
| 1777488974 | 0.56° C | 44% | 1026.5 hPa | - | - | 338 W/m² | - |
| 1777486186 | 3.89° C | 37% | 1025.9 hPa | - | - | 337 W/m² | - |
* Rain since midnight (hover to see other rain measurements)
** Current wind speed in m/s (hover to see current wind gust speed)